createdAt,value
2019-05-29T00:00:28.918Z,4.00
2019-05-29T00:01:28.876Z,0.00
2019-05-29T00:02:28.849Z,0.00
2019-05-29T00:03:28.856Z,4.00
2019-05-29T00:04:28.829Z,4.00
2019-05-29T00:05:28.809Z,4.00
2019-05-29T00:06:40.896Z,4.00
2019-05-29T00:07:28.803Z,4.00
2019-05-29T00:08:28.787Z,4.00
2019-05-29T00:09:28.769Z,4.00
2019-05-29T00:10:28.766Z,4.00
2019-05-29T00:11:28.794Z,4.00
2019-05-29T00:12:28.733Z,8.00
2019-05-29T00:13:28.729Z,8.00
2019-05-29T00:14:28.721Z,4.00
2019-05-29T00:15:28.723Z,4.00
2019-05-29T00:16:28.704Z,4.00
2019-05-29T00:17:28.707Z,4.00
2019-05-29T00:18:28.691Z,4.00
2019-05-29T00:19:28.683Z,8.00
2019-05-29T00:20:28.656Z,8.00
2019-05-29T00:21:28.649Z,8.00
2019-05-29T00:22:28.685Z,4.00
2019-05-29T00:23:28.616Z,4.00
2019-05-29T00:24:28.612Z,8.00
2019-05-29T00:25:28.607Z,8.00
2019-05-29T00:26:28.609Z,4.00
2019-05-29T00:27:28.580Z,8.00
2019-05-29T00:28:28.575Z,8.00
2019-05-29T00:29:28.574Z,8.00
2019-05-29T00:30:28.568Z,12.00
2019-05-29T00:31:28.532Z,8.00
2019-05-29T00:32:28.533Z,12.00
2019-05-29T00:33:28.522Z,12.00
2019-05-29T00:34:28.505Z,16.00
2019-05-29T00:35:28.490Z,20.00
2019-05-29T00:36:28.484Z,20.00
2019-05-29T00:37:38.992Z,20.00
2019-05-29T00:39:37.640Z,20.00
2019-05-29T00:40:37.608Z,20.00
2019-05-29T00:41:37.611Z,20.00
2019-05-29T00:43:37.676Z,24.00
2019-05-29T00:45:37.560Z,24.00
2019-05-29T00:46:37.540Z,24.00
2019-05-29T00:49:37.528Z,32.00
2019-05-29T01:09:44.801Z,76.00
2019-05-29T01:10:37.289Z,80.00
2019-05-29T01:20:37.171Z,128.00
2019-05-29T01:41:36.956Z,228.00
2019-05-29T01:45:43.900Z,228.00
2019-05-29T01:47:44.004Z,224.00
2019-05-29T01:48:43.853Z,200.00
2019-05-29T01:49:36.929Z,192.00
2019-05-29T01:50:36.843Z,176.00
2019-05-29T01:51:36.833Z,176.00
2019-05-29T01:52:36.830Z,172.00
2019-05-29T01:53:36.829Z,176.00
2019-05-29T01:54:36.804Z,192.00
2019-05-29T01:55:36.787Z,184.00
2019-05-29T01:56:36.800Z,180.00
2019-05-29T01:57:36.771Z,192.00
2019-05-29T01:58:36.761Z,196.00
2019-05-29T01:59:36.743Z,216.00
2019-05-29T02:00:36.750Z,228.00
2019-05-29T02:01:36.724Z,236.00
2019-05-29T02:02:36.713Z,276.00
2019-05-29T02:03:36.716Z,284.00
2019-05-29T02:04:36.701Z,308.00
2019-05-29T02:05:36.682Z,304.00
2019-05-29T02:06:36.680Z,332.00
2019-05-29T02:07:36.679Z,336.00
2019-05-29T02:08:36.675Z,352.00
2019-05-29T02:09:36.637Z,328.00
2019-05-29T02:10:36.640Z,356.00
2019-05-29T02:11:36.629Z,360.00
2019-05-29T02:12:36.602Z,368.00
2019-05-29T02:13:36.596Z,384.00
2019-05-29T02:14:36.598Z,412.00
2019-05-29T02:15:36.576Z,328.00
2019-05-29T02:16:36.559Z,288.00
2019-05-29T02:17:36.560Z,320.00
2019-05-29T02:18:36.622Z,376.00
2019-05-29T02:20:36.515Z,380.00
2019-05-29T02:21:36.506Z,388.00
2019-05-29T02:22:36.494Z,436.00
2019-05-29T02:23:36.483Z,472.00
2019-05-29T02:24:36.524Z,484.00
2019-05-29T02:25:36.486Z,504.00
2019-05-29T02:26:36.453Z,512.00
2019-05-29T02:27:36.447Z,504.00
2019-05-29T02:28:36.425Z,464.00
2019-05-29T02:29:36.414Z,456.00
2019-05-29T02:30:36.442Z,432.00
2019-05-29T02:31:36.409Z,456.00
2019-05-29T02:32:36.385Z,464.00
2019-05-29T02:33:36.380Z,508.00
2019-05-29T02:34:36.364Z,520.00
2019-05-29T02:35:36.363Z,508.00
2019-05-29T02:36:36.339Z,480.00
2019-05-29T02:37:36.331Z,460.00
2019-05-29T02:38:36.339Z,496.00
2019-05-29T02:39:36.314Z,480.00
2019-05-29T02:40:36.312Z,496.00
2019-05-29T02:41:36.323Z,560.00
2019-05-29T02:42:36.284Z,560.00
2019-05-29T02:43:36.278Z,536.00
2019-05-29T02:44:36.257Z,484.00
2019-05-29T02:45:52.898Z,484.00
2019-05-29T02:46:37.234Z,488.00
2019-05-29T02:47:36.222Z,460.00
2019-05-29T02:48:36.210Z,488.00
2019-05-29T02:49:36.207Z,504.00
2019-05-29T02:50:48.612Z,480.00
2019-05-29T02:51:36.202Z,484.00
2019-05-29T02:52:36.219Z,472.00
2019-05-29T02:53:36.158Z,512.00
2019-05-29T02:54:36.140Z,548.00
2019-05-29T02:55:36.183Z,548.00
2019-05-29T02:56:36.156Z,584.00
2019-05-29T02:57:36.118Z,592.00
2019-05-29T02:58:36.115Z,588.00
2019-05-29T02:59:36.109Z,536.00
2019-05-29T03:00:36.096Z,528.00
2019-05-29T03:01:36.135Z,556.00
2019-05-29T03:02:36.055Z,596.00
2019-05-29T03:03:39.738Z,604.00
2019-05-29T03:04:36.055Z,636.00
2019-05-29T03:05:36.032Z,648.00
2019-05-29T03:06:36.029Z,700.00
2019-05-29T03:07:36.059Z,732.00
2019-05-29T03:08:36.019Z,736.00
2019-05-29T03:09:35.990Z,772.00
2019-05-29T03:10:35.970Z,836.00
2019-05-29T03:11:35.962Z,944.00
2019-05-29T03:12:35.964Z,1020.00
2019-05-29T03:13:35.939Z,972.00
2019-05-29T03:14:35.953Z,932.00
2019-05-29T03:15:35.918Z,904.00
2019-05-29T03:16:35.898Z,916.00
2019-05-29T03:17:35.918Z,908.00
2019-05-29T03:18:36.565Z,940.00
2019-05-29T03:19:35.880Z,964.00
2019-05-29T03:20:35.875Z,940.00
2019-05-29T03:22:44.113Z,1096.00
2019-05-29T03:23:36.511Z,1184.00
2019-05-29T03:24:35.822Z,1196.00
2019-05-29T03:25:37.049Z,1236.00
2019-05-29T03:26:35.798Z,1212.00
2019-05-29T03:27:35.782Z,1156.00
2019-05-29T03:28:35.822Z,1116.00
2019-05-29T03:29:35.757Z,1132.00
2019-05-29T03:30:42.198Z,1108.00
2019-05-29T03:31:43.364Z,1160.00
2019-05-29T03:32:43.466Z,1168.00
2019-05-29T03:33:44.808Z,1160.00
2019-05-29T03:34:42.359Z,1168.00
2019-05-29T03:35:43.965Z,1140.00
2019-05-29T03:36:46.055Z,1140.00
2019-05-29T03:37:38.499Z,1196.00
2019-05-29T03:38:35.662Z,1196.00
2019-05-29T03:39:35.667Z,1252.00
2019-05-29T03:40:35.637Z,1300.00
2019-05-29T03:41:35.647Z,1308.00
2019-05-29T03:42:35.628Z,1452.00
2019-05-29T03:43:36.265Z,1632.00
2019-05-29T03:44:35.662Z,1800.00
2019-05-29T03:45:36.295Z,1580.00
2019-05-29T03:46:43.023Z,1556.00
2019-05-29T03:47:37.172Z,1588.00
2019-05-29T03:48:35.552Z,1600.00
2019-05-29T03:49:37.221Z,1880.00
2019-05-29T03:50:35.539Z,2016.00
2019-05-29T03:51:37.212Z,2304.00
2019-05-29T03:53:36.692Z,1848.00
2019-05-29T03:54:35.610Z,2040.00
2019-05-29T03:55:35.932Z,2164.00
2019-05-29T03:56:35.472Z,2364.00
2019-05-29T03:57:35.891Z,2276.00
2019-05-29T03:58:37.506Z,2148.00
2019-05-29T03:59:37.353Z,1864.00
2019-05-29T04:00:41.703Z,1816.00
2019-05-29T04:01:37.438Z,1976.00
2019-05-29T04:02:36.141Z,2268.00
2019-05-29T04:03:36.107Z,2380.00
2019-05-29T04:04:36.180Z,2400.00
2019-05-29T04:05:35.702Z,2076.00
2019-05-29T04:06:35.777Z,1764.00
2019-05-29T04:07:35.702Z,1716.00
2019-05-29T04:08:35.812Z,1656.00
2019-05-29T04:09:35.530Z,1724.00
2019-05-29T04:10:37.364Z,1916.00
2019-05-29T04:11:35.638Z,1820.00
2019-05-29T04:12:35.545Z,1620.00
2019-05-29T04:13:36.260Z,1524.00
2019-05-29T04:14:35.745Z,1724.00
2019-05-29T04:15:36.551Z,1972.00
2019-05-29T04:16:52.766Z,1620.00
2019-05-29T04:17:37.837Z,1364.00
2019-05-29T04:18:35.950Z,1744.00
2019-05-29T04:19:36.867Z,2200.00
2019-05-29T04:21:36.345Z,1976.00
2019-05-29T04:23:45.659Z,1808.00
2019-05-29T04:24:35.979Z,2172.00
2019-05-29T04:25:38.279Z,2136.00
2019-05-29T04:26:36.283Z,2400.00
2019-05-29T04:27:35.977Z,2444.00
2019-05-29T04:28:36.766Z,2504.00
2019-05-29T04:29:36.116Z,2392.00
2019-05-29T04:30:36.511Z,2032.00
2019-05-29T04:31:36.574Z,2016.00
2019-05-29T04:32:36.636Z,1624.00
2019-05-29T04:33:36.662Z,1620.00
2019-05-29T04:34:35.866Z,1568.00
2019-05-29T04:35:36.626Z,1424.00
2019-05-29T04:36:36.700Z,1640.00
2019-05-29T04:37:36.834Z,1628.00
2019-05-29T04:38:36.149Z,1504.00
2019-05-29T04:39:36.835Z,1284.00
2019-05-29T04:40:37.097Z,1280.00
2019-05-29T04:41:36.869Z,1272.00
2019-05-29T04:42:35.793Z,1212.00
2019-05-29T04:43:35.662Z,920.00
2019-05-29T04:44:36.264Z,824.00
2019-05-29T04:45:35.991Z,724.00
2019-05-29T04:46:36.337Z,780.00
2019-05-29T04:47:35.217Z,920.00
2019-05-29T04:48:36.228Z,1000.00
2019-05-29T04:49:36.166Z,1024.00
2019-05-29T04:50:36.420Z,952.00
2019-05-29T04:51:35.442Z,928.00
2019-05-29T04:52:35.917Z,984.00
2019-05-29T04:53:35.550Z,968.00
2019-05-29T04:55:34.901Z,1016.00
2019-05-29T04:56:34.922Z,1028.00
2019-05-29T04:57:35.004Z,1084.00
2019-05-29T04:58:34.894Z,1052.00
2019-05-29T04:59:35.037Z,1060.00
2019-05-29T05:00:35.230Z,1116.00
2019-05-29T05:01:35.066Z,1360.00
2019-05-29T05:02:35.071Z,1588.00
2019-05-29T05:03:35.179Z,1876.00
2019-05-29T05:04:35.163Z,1980.00
2019-05-29T05:05:35.333Z,2168.00
2019-05-29T05:06:35.315Z,2116.00
2019-05-29T05:07:35.379Z,1972.00
2019-05-29T05:08:41.971Z,1872.00
2019-05-29T05:09:35.419Z,2140.00
2019-05-29T05:11:05.499Z,2288.00
2019-05-29T05:11:51.549Z,2596.00
2019-05-29T05:12:44.337Z,2364.00
2019-05-29T05:13:35.572Z,2244.00
2019-05-29T05:15:25.416Z,2476.00
2019-05-29T05:16:25.409Z,2420.00
2019-05-29T05:17:26.598Z,2348.00
2019-05-29T05:18:25.381Z,2548.00
2019-05-29T05:19:25.387Z,2284.00
2019-05-29T05:20:25.384Z,2484.00
2019-05-29T05:21:25.348Z,2632.00
2019-05-29T05:22:25.335Z,2780.00
2019-05-29T05:23:25.328Z,2752.00
2019-05-29T05:24:25.331Z,2980.00
2019-05-29T05:25:25.321Z,2904.00
2019-05-29T05:26:25.302Z,2764.00
2019-05-29T05:27:25.310Z,2440.00
2019-05-29T05:28:25.279Z,2144.00
2019-05-29T05:29:25.263Z,2016.00
2019-05-29T05:30:25.254Z,2208.00
2019-05-29T05:31:25.280Z,2152.00
2019-05-29T05:32:25.242Z,2176.00
2019-05-29T05:33:25.222Z,2184.00
2019-05-29T05:34:25.223Z,2128.00
2019-05-29T05:35:25.203Z,1904.00
2019-05-29T05:36:25.182Z,2048.00
2019-05-29T05:37:25.188Z,2332.00
2019-05-29T05:38:25.283Z,2364.00
2019-05-29T05:39:25.154Z,2352.00
2019-05-29T05:40:25.143Z,2252.00
2019-05-29T05:41:25.138Z,2128.00
2019-05-29T05:42:25.139Z,2216.00
2019-05-29T05:43:25.115Z,2296.00
2019-05-29T05:44:25.156Z,2280.00
2019-05-29T05:45:32.984Z,2148.00
2019-05-29T05:46:25.086Z,2360.00
2019-05-29T05:47:43.093Z,2528.00
2019-05-29T05:48:26.053Z,2512.00
2019-05-29T05:49:25.065Z,2656.00
2019-05-29T05:50:25.038Z,2900.00
2019-05-29T05:51:25.019Z,3092.00
2019-05-29T05:52:25.027Z,2960.00
2019-05-29T05:53:25.092Z,2988.00
2019-05-29T05:54:25.001Z,3012.00
2019-05-29T05:55:24.984Z,3060.00
2019-05-29T05:56:24.969Z,3100.00
2019-05-29T05:57:24.969Z,2844.00
2019-05-29T05:58:24.954Z,3000.00
2019-05-29T05:59:24.930Z,2836.00
2019-05-29T06:00:24.929Z,2780.00
2019-05-29T06:01:24.920Z,3152.00
2019-05-29T06:02:25.168Z,3760.00
2019-05-29T06:03:24.899Z,3872.00
2019-05-29T06:04:24.922Z,3780.00
2019-05-29T06:05:24.870Z,3628.00
2019-05-29T06:06:24.860Z,4104.00
2019-05-29T06:07:24.881Z,4072.00
2019-05-29T06:08:24.833Z,4060.00
2019-05-29T06:09:24.845Z,4132.00
2019-05-29T06:10:24.811Z,4164.00
2019-05-29T06:11:24.809Z,3924.00
2019-05-29T06:12:24.813Z,3844.00
2019-05-29T06:13:24.792Z,4656.00
2019-05-29T06:14:24.784Z,3888.00
2019-05-29T06:15:24.917Z,3392.00
2019-05-29T06:16:37.194Z,3188.00
2019-05-29T06:17:25.750Z,2948.00
2019-05-29T06:18:24.777Z,2976.00
2019-05-29T06:19:24.726Z,2732.00
2019-05-29T06:20:24.716Z,2780.00
2019-05-29T06:21:24.713Z,2896.00
2019-05-29T06:22:24.703Z,2888.00
2019-05-29T06:23:24.711Z,3152.00
2019-05-29T06:24:24.723Z,2928.00
2019-05-29T06:25:24.761Z,2772.00
2019-05-29T06:26:24.636Z,2404.00
2019-05-29T06:27:24.635Z,2248.00
2019-05-29T06:28:24.643Z,2280.00
2019-05-29T06:29:33.405Z,2492.00
2019-05-29T06:30:24.598Z,2408.00
2019-05-29T06:31:27.145Z,2488.00
2019-05-29T06:32:24.571Z,2308.00
2019-05-29T06:33:24.564Z,2196.00
2019-05-29T06:34:24.566Z,2412.00
2019-05-29T06:35:31.766Z,2312.00
2019-05-29T06:36:25.513Z,2948.00
2019-05-29T06:37:26.189Z,3060.00
2019-05-29T06:38:24.511Z,2908.00
2019-05-29T06:39:24.503Z,2204.00
2019-05-29T06:40:24.484Z,2264.00
2019-05-29T06:41:24.473Z,2528.00
2019-05-29T06:42:25.731Z,3036.00
2019-05-29T06:43:24.458Z,2944.00
2019-05-29T06:44:31.956Z,2868.00
2019-05-29T06:45:24.438Z,2992.00
2019-05-29T06:46:24.422Z,3116.00
2019-05-29T06:47:24.415Z,3016.00
2019-05-29T06:48:40.421Z,2984.00
2019-05-29T06:49:25.397Z,3300.00
2019-05-29T06:50:24.395Z,3312.00
2019-05-29T06:51:24.387Z,3068.00
2019-05-29T06:52:24.365Z,3056.00
2019-05-29T06:53:24.349Z,2704.00
2019-05-29T06:54:24.328Z,2340.00
2019-05-29T06:55:24.339Z,2348.00
2019-05-29T06:56:24.340Z,2052.00
2019-05-29T06:57:25.923Z,1712.00
2019-05-29T06:58:24.290Z,1464.00
2019-05-29T06:59:24.295Z,1548.00
2019-05-29T07:00:34.983Z,1600.00
2019-05-29T07:01:25.254Z,1712.00
2019-05-29T07:02:24.260Z,2060.00
2019-05-29T07:03:24.245Z,2164.00
2019-05-29T07:04:24.238Z,2312.00
2019-05-29T07:05:24.244Z,2336.00
2019-05-29T07:06:24.213Z,2248.00
2019-05-29T07:07:24.204Z,2376.00
2019-05-29T07:08:38.145Z,2380.00
2019-05-29T07:09:25.182Z,2456.00
2019-05-29T07:10:24.160Z,2700.00
2019-05-29T07:11:24.159Z,3192.00
2019-05-29T07:12:24.129Z,2332.00
2019-05-29T07:13:24.131Z,2180.00
2019-05-29T07:14:24.117Z,1860.00
2019-05-29T07:15:36.507Z,1764.00
2019-05-29T07:16:42.872Z,1728.00
2019-05-29T07:17:25.079Z,1564.00
2019-05-29T07:18:24.076Z,1600.00
2019-05-29T07:19:34.192Z,1724.00
2019-05-29T07:20:25.065Z,1828.00
2019-05-29T07:21:24.108Z,2056.00
2019-05-29T07:22:24.022Z,2160.00
2019-05-29T07:23:24.026Z,2540.00
2019-05-29T07:24:24.005Z,2648.00
2019-05-29T07:25:23.990Z,3112.00
2019-05-29T07:26:24.054Z,3204.00
2019-05-29T07:27:23.968Z,3296.00
2019-05-29T07:28:23.962Z,3196.00
2019-05-29T07:29:23.960Z,2924.00
2019-05-29T07:30:23.962Z,2692.00
2019-05-29T07:31:23.943Z,2544.00
2019-05-29T07:32:23.949Z,2744.00
2019-05-29T07:33:23.907Z,2668.00
2019-05-29T07:34:23.890Z,2720.00
2019-05-29T07:35:23.884Z,2772.00
2019-05-29T07:36:23.870Z,3120.00
2019-05-29T07:37:23.858Z,3280.00
2019-05-29T07:38:23.861Z,3504.00
2019-05-29T07:39:23.879Z,3332.00
2019-05-29T07:40:23.831Z,3436.00
2019-05-29T07:41:23.825Z,3364.00
2019-05-29T07:42:23.804Z,3480.00
2019-05-29T07:43:23.803Z,3288.00
2019-05-29T07:44:23.863Z,3520.00
2019-05-29T07:45:23.819Z,3212.00
2019-05-29T07:46:35.918Z,2876.00
2019-05-29T07:47:23.759Z,2852.00
2019-05-29T07:48:23.877Z,3116.00
2019-05-29T07:49:38.148Z,3228.00
2019-05-29T07:50:24.736Z,3268.00
2019-05-29T07:51:23.709Z,3584.00
2019-05-29T07:52:23.714Z,3916.00
2019-05-29T07:53:23.702Z,4288.00
2019-05-29T07:54:23.685Z,4288.00
2019-05-29T07:55:23.897Z,4788.00
2019-05-29T07:56:23.674Z,5636.00
2019-05-29T07:57:23.651Z,6440.00
2019-05-29T07:58:23.658Z,6660.00
2019-05-29T07:59:23.642Z,6920.00
2019-05-29T08:00:34.738Z,6976.00
2019-05-29T08:01:24.597Z,6660.00
2019-05-29T08:02:23.593Z,6900.00
2019-05-29T08:03:23.573Z,6528.00
2019-05-29T08:04:23.591Z,6224.00
2019-05-29T08:05:23.574Z,6424.00
2019-05-29T08:06:23.545Z,8256.00
2019-05-29T08:07:23.629Z,7704.00
2019-05-29T08:08:23.517Z,6896.00
2019-05-29T08:09:23.513Z,6092.00
2019-05-29T08:10:23.529Z,6344.00
2019-05-29T08:11:23.500Z,6856.00
2019-05-29T08:12:23.503Z,6608.00
2019-05-29T08:13:23.497Z,6976.00
2019-05-29T08:14:23.468Z,7032.00
2019-05-29T08:15:23.453Z,7548.00
2019-05-29T08:16:23.434Z,7384.00
2019-05-29T08:17:35.176Z,6548.00
2019-05-29T08:18:23.430Z,5632.00
2019-05-29T08:19:23.431Z,5492.00
2019-05-29T08:20:23.408Z,5664.00
2019-05-29T08:21:23.382Z,5912.00
2019-05-29T08:22:33.748Z,5516.00
2019-05-29T08:23:24.356Z,7200.00
2019-05-29T08:24:24.820Z,10652.00
2019-05-29T08:25:23.346Z,10300.00
2019-05-29T08:26:23.332Z,10024.00
2019-05-29T08:27:23.323Z,12296.00
2019-05-29T08:28:23.301Z,11160.00
2019-05-29T08:29:23.290Z,9928.00
2019-05-29T08:30:23.287Z,9452.00
2019-05-29T08:31:23.296Z,9284.00
2019-05-29T08:32:23.255Z,9348.00
2019-05-29T08:33:23.248Z,11316.00
2019-05-29T08:34:23.239Z,13500.00
2019-05-29T08:35:23.225Z,13016.00
2019-05-29T08:36:23.269Z,10972.00
2019-05-29T08:37:23.211Z,9948.00
2019-05-29T08:38:23.205Z,11832.00
2019-05-29T08:39:35.361Z,13520.00
2019-05-29T08:40:24.192Z,14952.00
2019-05-29T08:41:23.160Z,13896.00
2019-05-29T08:42:23.965Z,12104.00
2019-05-29T08:43:23.140Z,11436.00
2019-05-29T08:44:23.124Z,10068.00
2019-05-29T08:45:23.123Z,8668.00
2019-05-29T08:46:23.116Z,8864.00
2019-05-29T08:47:23.107Z,7688.00
2019-05-29T08:48:35.224Z,6904.00
2019-05-29T08:49:23.342Z,7264.00
2019-05-29T08:50:23.062Z,6928.00
2019-05-29T08:51:23.046Z,8960.00
2019-05-29T08:52:23.084Z,7964.00
2019-05-29T08:53:23.071Z,6812.00
2019-05-29T08:54:24.215Z,6128.00
2019-05-29T08:55:23.009Z,6436.00
2019-05-29T08:56:23.001Z,6724.00
2019-05-29T08:57:22.987Z,8216.00
2019-05-29T08:58:22.982Z,7224.00
2019-05-29T08:59:22.985Z,7424.00
2019-05-29T09:00:22.994Z,7980.00
2019-05-29T09:01:22.950Z,7916.00
2019-05-29T09:02:22.935Z,7320.00
2019-05-29T09:03:22.939Z,7768.00
2019-05-29T09:04:22.927Z,8636.00
2019-05-29T09:05:22.902Z,7312.00
2019-05-29T09:06:22.898Z,7168.00
2019-05-29T09:07:22.882Z,5208.00
2019-05-29T09:08:22.941Z,4584.00
2019-05-29T09:09:22.872Z,4336.00
2019-05-29T09:10:22.848Z,3756.00
2019-05-29T09:11:22.837Z,3124.00
2019-05-29T09:12:22.822Z,3928.00
2019-05-29T09:13:22.818Z,4896.00
2019-05-29T09:14:22.820Z,4996.00
2019-05-29T09:15:22.793Z,4476.00
2019-05-29T09:16:22.912Z,5288.00
2019-05-29T09:17:22.788Z,5568.00
2019-05-29T09:18:25.557Z,5380.00
2019-05-29T09:19:33.102Z,4668.00
2019-05-29T09:20:37.205Z,5444.00
2019-05-29T09:21:26.617Z,4436.00
2019-05-29T09:22:23.032Z,5292.00
2019-05-29T09:23:23.309Z,6304.00
2019-05-29T09:24:23.084Z,6564.00
2019-05-29T09:25:23.264Z,6092.00
2019-05-29T09:26:25.498Z,7092.00
2019-05-29T09:27:23.298Z,6508.00
2019-05-29T09:28:23.843Z,7064.00
2019-05-29T09:29:23.807Z,8052.00
2019-05-29T09:30:23.626Z,10788.00
2019-05-29T09:31:23.799Z,11684.00
2019-05-29T09:32:47.657Z,12160.00
2019-05-29T09:33:24.584Z,13028.00
2019-05-29T09:34:22.838Z,12816.00
2019-05-29T09:35:24.600Z,12740.00
2019-05-29T09:36:22.810Z,11044.00
2019-05-29T09:37:22.544Z,10764.00
2019-05-29T09:38:23.062Z,10372.00
2019-05-29T09:39:22.842Z,9208.00
2019-05-29T09:40:23.079Z,8860.00
2019-05-29T09:41:23.573Z,7044.00
2019-05-29T09:42:23.717Z,5784.00
2019-05-29T09:43:27.088Z,5384.00
2019-05-29T09:44:33.882Z,6120.00
2019-05-29T09:45:23.545Z,6876.00
2019-05-29T09:46:23.707Z,5844.00
2019-05-29T09:47:24.069Z,6608.00
2019-05-29T09:48:26.504Z,5692.00
2019-05-29T09:49:22.416Z,6236.00
2019-05-29T09:50:48.954Z,6568.00
2019-05-29T09:51:23.423Z,5684.00
2019-05-29T09:52:22.423Z,4992.00
2019-05-29T09:53:22.399Z,5260.00
2019-05-29T09:54:22.439Z,5840.00
2019-05-29T09:55:22.355Z,6068.00
2019-05-29T09:56:22.402Z,6344.00
2019-05-29T09:57:22.337Z,6552.00
2019-05-29T09:58:22.325Z,5948.00
2019-05-29T09:59:22.317Z,5868.00
2019-05-29T10:00:22.302Z,5156.00
2019-05-29T10:01:24.421Z,4388.00
2019-05-29T10:02:22.336Z,4928.00
2019-05-29T10:03:22.340Z,5732.00
2019-05-29T10:04:22.252Z,6220.00
2019-05-29T10:05:22.247Z,6800.00
2019-05-29T10:06:22.230Z,6484.00
2019-05-29T10:07:22.217Z,6832.00
2019-05-29T10:08:22.222Z,6812.00
2019-05-29T10:09:22.198Z,8104.00
2019-05-29T10:10:22.187Z,8236.00
2019-05-29T10:11:22.178Z,8028.00
2019-05-29T10:12:22.179Z,7700.00
2019-05-29T10:13:22.156Z,7712.00
2019-05-29T10:14:22.143Z,8012.00
2019-05-29T10:15:22.138Z,8204.00
2019-05-29T10:16:22.118Z,10904.00
2019-05-29T10:17:22.159Z,12620.00
2019-05-29T10:18:32.175Z,11704.00
2019-05-29T10:19:23.087Z,12088.00
2019-05-29T10:20:22.093Z,11008.00
2019-05-29T10:21:40.492Z,8764.00
2019-05-29T10:22:23.103Z,6532.00
2019-05-29T10:23:22.087Z,5284.00
2019-05-29T10:24:22.166Z,6452.00
2019-05-29T10:25:22.023Z,8628.00
2019-05-29T10:26:22.011Z,6984.00
2019-05-29T10:27:22.010Z,6544.00
2019-05-29T10:28:21.998Z,7832.00
2019-05-29T10:29:22.510Z,10956.00
2019-05-29T10:30:21.969Z,12456.00
2019-05-29T10:31:21.965Z,12548.00
2019-05-29T10:32:21.943Z,12600.00
2019-05-29T10:33:23.160Z,13740.00
2019-05-29T10:34:22.070Z,14472.00
2019-05-29T10:35:22.102Z,14684.00
2019-05-29T10:36:22.101Z,14436.00
2019-05-29T10:37:22.330Z,13968.00
2019-05-29T10:38:22.021Z,13092.00
2019-05-29T10:39:22.079Z,12828.00
2019-05-29T10:40:21.953Z,12052.00
2019-05-29T10:41:22.050Z,10136.00
2019-05-29T10:42:21.903Z,8036.00
2019-05-29T10:43:33.736Z,6424.00
2019-05-29T10:44:23.012Z,5596.00
2019-05-29T10:45:22.034Z,4912.00
2019-05-29T10:46:21.948Z,4328.00
2019-05-29T10:47:22.034Z,4904.00
2019-05-29T10:48:21.877Z,6588.00
2019-05-29T10:49:21.891Z,10944.00
2019-05-29T10:50:21.979Z,14416.00
2019-05-29T10:51:21.813Z,13500.00
2019-05-29T10:52:33.950Z,12412.00
2019-05-29T10:53:21.753Z,12020.00
2019-05-29T10:54:21.978Z,10232.00
2019-05-29T10:55:21.708Z,12856.00
2019-05-29T10:56:21.821Z,12252.00
2019-05-29T10:57:21.689Z,11760.00
2019-05-29T10:58:21.665Z,10624.00
2019-05-29T10:59:21.651Z,8392.00
2019-05-29T11:00:21.651Z,6092.00
2019-05-29T11:01:21.641Z,4964.00
2019-05-29T11:02:21.626Z,4424.00
2019-05-29T11:03:21.609Z,4500.00
2019-05-29T11:04:21.595Z,4744.00
2019-05-29T11:05:21.595Z,5300.00
2019-05-29T11:06:21.607Z,5800.00
2019-05-29T11:07:21.574Z,6252.00
2019-05-29T11:08:21.563Z,6580.00
2019-05-29T11:09:21.542Z,7712.00
2019-05-29T11:10:21.543Z,8748.00
2019-05-29T11:11:21.534Z,10316.00
2019-05-29T11:12:21.522Z,11320.00
2019-05-29T11:13:21.496Z,11372.00
2019-05-29T11:14:21.488Z,10512.00
2019-05-29T11:15:22.151Z,10504.00
2019-05-29T11:16:21.478Z,11380.00
2019-05-29T11:17:21.499Z,12368.00
2019-05-29T11:18:21.443Z,13412.00
2019-05-29T11:19:21.434Z,13832.00
2019-05-29T11:20:21.425Z,13348.00
2019-05-29T11:21:21.415Z,13344.00
2019-05-29T11:22:26.198Z,13096.00
2019-05-29T11:24:36.711Z,12364.00
2019-05-29T11:25:36.444Z,11572.00
2019-05-29T11:26:36.531Z,10252.00
2019-05-29T11:27:36.274Z,8236.00
2019-05-29T11:28:36.286Z,6932.00
2019-05-29T11:29:36.256Z,6484.00
2019-05-29T11:30:36.239Z,6724.00
2019-05-29T11:31:36.226Z,7352.00
2019-05-29T11:32:36.276Z,8184.00
2019-05-29T11:33:36.212Z,8976.00
2019-05-29T11:34:36.203Z,10084.00
2019-05-29T11:35:36.181Z,10500.00
2019-05-29T11:36:36.182Z,10140.00
2019-05-29T11:37:36.176Z,11348.00
2019-05-29T11:38:36.187Z,12400.00
2019-05-29T11:39:36.144Z,13124.00
2019-05-29T11:40:36.272Z,12724.00
2019-05-29T11:41:36.126Z,12240.00
2019-05-29T11:42:36.109Z,12100.00
2019-05-29T11:43:36.140Z,12040.00
2019-05-29T11:44:36.132Z,11696.00
2019-05-29T11:45:36.155Z,11656.00
2019-05-29T11:46:36.066Z,11656.00
2019-05-29T11:47:36.055Z,11556.00
2019-05-29T11:48:36.045Z,11760.00
2019-05-29T11:49:36.041Z,12000.00
2019-05-29T11:50:36.059Z,11900.00
2019-05-29T11:51:36.015Z,11844.00
2019-05-29T11:52:42.905Z,12024.00
2019-05-29T11:53:36.995Z,12968.00
2019-05-29T11:54:47.991Z,13580.00
2019-05-29T11:55:36.196Z,13788.00
2019-05-29T11:56:35.977Z,14416.00
2019-05-29T11:57:39.477Z,13744.00
2019-05-29T11:58:35.946Z,13392.00
2019-05-29T11:59:35.931Z,12488.00
2019-05-29T12:00:35.922Z,11856.00
2019-05-29T12:01:49.797Z,12444.00
2019-05-29T12:02:36.898Z,11856.00
2019-05-29T12:03:35.883Z,10920.00
2019-05-29T12:04:35.875Z,9976.00
2019-05-29T12:05:35.880Z,8108.00
2019-05-29T12:06:35.954Z,7340.00
2019-05-29T12:07:35.843Z,7132.00
2019-05-29T12:08:35.832Z,7032.00
2019-05-29T12:09:35.987Z,7736.00
2019-05-29T12:10:35.834Z,8340.00
2019-05-29T12:11:35.800Z,8388.00
2019-05-29T12:12:35.787Z,8760.00
2019-05-29T12:13:35.778Z,8692.00
2019-05-29T12:14:57.647Z,9212.00
2019-05-29T12:15:36.761Z,10208.00
2019-05-29T12:16:35.756Z,10960.00
2019-05-29T12:17:35.869Z,11256.00
2019-05-29T12:18:35.726Z,11204.00
2019-05-29T12:19:35.709Z,10656.00
2019-05-29T12:20:35.703Z,10296.00
2019-05-29T12:21:35.720Z,9904.00
2019-05-29T12:22:35.711Z,9172.00
2019-05-29T12:23:35.666Z,8724.00
2019-05-29T12:24:35.675Z,8496.00
2019-05-29T12:25:46.161Z,8384.00
2019-05-29T12:26:35.681Z,8116.00
2019-05-29T12:27:35.849Z,7716.00
2019-05-29T12:28:35.682Z,7244.00
2019-05-29T12:29:35.608Z,6980.00
2019-05-29T12:30:35.665Z,7124.00
2019-05-29T12:31:35.586Z,7164.00
2019-05-29T12:32:35.580Z,7076.00
2019-05-29T12:33:35.569Z,6832.00
2019-05-29T12:34:35.548Z,6824.00
2019-05-29T12:35:35.537Z,7016.00
2019-05-29T12:36:35.530Z,7112.00
2019-05-29T12:37:35.533Z,6956.00
2019-05-29T12:38:35.568Z,7144.00
2019-05-29T12:39:35.500Z,7804.00
2019-05-29T12:40:35.486Z,8480.00
2019-05-29T12:41:35.613Z,9028.00
2019-05-29T12:42:35.473Z,9248.00
2019-05-29T12:43:35.470Z,9304.00
2019-05-29T12:44:35.448Z,9208.00
2019-05-29T12:45:35.439Z,9056.00
2019-05-29T12:46:35.424Z,8912.00
2019-05-29T12:47:35.414Z,8632.00
2019-05-29T12:48:35.413Z,8260.00
2019-05-29T12:49:35.392Z,7704.00
2019-05-29T12:50:35.384Z,7372.00
2019-05-29T12:51:35.391Z,7172.00
2019-05-29T12:52:35.362Z,7156.00
2019-05-29T12:53:35.359Z,7296.00
2019-05-29T12:54:35.334Z,7504.00
2019-05-29T12:55:35.331Z,7828.00
2019-05-29T12:56:46.033Z,8356.00
2019-05-29T12:57:35.349Z,8964.00
2019-05-29T12:58:35.427Z,9444.00
2019-05-29T12:59:35.284Z,9552.00
2019-05-29T13:00:35.283Z,9240.00
2019-05-29T13:01:35.271Z,9024.00
2019-05-29T13:02:35.249Z,8664.00
2019-05-29T13:03:35.262Z,8292.00
2019-05-29T13:05:05.127Z,8360.00
2019-05-29T13:05:36.215Z,8836.00
2019-05-29T13:06:35.219Z,9280.00
2019-05-29T13:07:35.195Z,9584.00
2019-05-29T13:08:35.187Z,9752.00
2019-05-29T13:09:35.191Z,9808.00
2019-05-29T13:10:35.163Z,9736.00
2019-05-29T13:11:35.161Z,9580.00
2019-05-29T13:12:35.147Z,9228.00
2019-05-29T13:13:35.129Z,8908.00
2019-05-29T13:14:35.162Z,8936.00